sensor_id;sensor_type;location;lat;lon;timestamp;temperature;humidity
21338;DHT22;10827;50.878;4.382;2022-10-16T00:01:46;16.00;98.30
21338;DHT22;10827;50.878;4.382;2022-10-16T00:04:12;16.40;97.70
21338;DHT22;10827;50.878;4.382;2022-10-16T00:06:39;16.10;95.90
21338;DHT22;10827;50.878;4.382;2022-10-16T00:09:05;16.30;93.60
21338;DHT22;10827;50.878;4.382;2022-10-16T00:11:33;16.00;98.00
21338;DHT22;10827;50.878;4.382;2022-10-16T00:14:05;15.90;94.40
21338;DHT22;10827;50.878;4.382;2022-10-16T00:21:27;15.40;92.20
21338;DHT22;10827;50.878;4.382;2022-10-16T00:23:58;15.90;94.60
21338;DHT22;10827;50.878;4.382;2022-10-16T00:26:29;15.90;98.70
21338;DHT22;10827;50.878;4.382;2022-10-16T00:31:22;15.50;99.90
21338;DHT22;10827;50.878;4.382;2022-10-16T00:33:49;15.40;98.90
21338;DHT22;10827;50.878;4.382;2022-10-16T00:36:18;15.50;99.90
21338;DHT22;10827;50.878;4.382;2022-10-16T00:41:14;15.30;99.90
21338;DHT22;10827;50.878;4.382;2022-10-16T00:43:51;15.30;99.90
21338;DHT22;10827;50.878;4.382;2022-10-16T00:49:05;15.30;99.90
21338;DHT22;10827;50.878;4.382;2022-10-16T00:51:40;15.30;99.90
21338;DHT22;10827;50.878;4.382;2022-10-16T00:54:13;15.30;99.90
21338;DHT22;10827;50.878;4.382;2022-10-16T00:56:41;15.50;99.60
21338;DHT22;10827;50.878;4.382;2022-10-16T00:59:15;15.40;99.90
21338;DHT22;10827;50.878;4.382;2022-10-16T01:04:07;15.60;99.90
21338;DHT22;10827;50.878;4.382;2022-10-16T01:11:57;15.30;99.90
21338;DHT22;10827;50.878;4.382;2022-10-16T01:14:34;15.30;99.90
21338;DHT22;10827;50.878;4.382;2022-10-16T01:17:11;15.30;99.90
21338;DHT22;10827;50.878;4.382;2022-10-16T01:20:08;15.30;99.90
21338;DHT22;10827;50.878;4.382;2022-10-16T01:23:05;15.40;99.90
21338;DHT22;10827;50.878;4.382;2022-10-16T01:31:22;15.90;99.90
21338;DHT22;10827;50.878;4.382;2022-10-16T01:37:04;15.20;99.90
21338;DHT22;10827;50.878;4.382;2022-10-16T01:39:31;15.10;99.90
21338;DHT22;10827;50.878;4.382;2022-10-16T01:42:22;15.10;99.90
21338;DHT22;10827;50.878;4.382;2022-10-16T01:44:51;15.30;99.90
21338;DHT22;10827;50.878;4.382;2022-10-16T01:47:21;15.50;99.90
21338;DHT22;10827;50.878;4.382;2022-10-16T01:49:48;15.60;99.90
21338;DHT22;10827;50.878;4.382;2022-10-16T01:52:18;15.40;99.90
21338;DHT22;10827;50.878;4.382;2022-10-16T01:54:47;15.30;99.90
21338;DHT22;10827;50.878;4.382;2022-10-16T01:57:15;15.20;99.90
21338;DHT22;10827;50.878;4.382;2022-10-16T01:59:47;15.30;99.90
21338;DHT22;10827;50.878;4.382;2022-10-16T02:02:15;15.40;99.90
21338;DHT22;10827;50.878;4.382;2022-10-16T02:04:53;15.30;99.90
21338;DHT22;10827;50.878;4.382;2022-10-16T02:07:19;15.30;99.90
21338;DHT22;10827;50.878;4.382;2022-10-16T02:09:45;15.10;99.90
21338;DHT22;10827;50.878;4.382;2022-10-16T02:12:32;15.00;99.90
21338;DHT22;10827;50.878;4.382;2022-10-16T02:19:54;15.10;99.90
21338;DHT22;10827;50.878;4.382;2022-10-16T02:22:33;14.90;99.90
21338;DHT22;10827;50.878;4.382;2022-10-16T02:25:06;15.00;99.90
21338;DHT22;10827;50.878;4.382;2022-10-16T02:33:11;15.20;99.90
21338;DHT22;10827;50.878;4.382;2022-10-16T02:35:40;15.00;99.90
21338;DHT22;10827;50.878;4.382;2022-10-16T02:38:07;15.00;99.90
21338;DHT22;10827;50.878;4.382;2022-10-16T02:40:33;15.20;99.90
21338;DHT22;10827;50.878;4.382;2022-10-16T02:55:11;14.70;99.90
21338;DHT22;10827;50.878;4.382;2022-10-16T02:57:36;14.90;99.90
21338;DHT22;10827;50.878;4.382;2022-10-16T03:00:04;15.20;99.90
21338;DHT22;10827;50.878;4.382;2022-10-16T03:07:22;15.10;99.90
21338;DHT22;10827;50.878;4.382;2022-10-16T03:09:49;15.50;99.90
21338;DHT22;10827;50.878;4.382;2022-10-16T03:12:15;15.00;99.90
21338;DHT22;10827;50.878;4.382;2022-10-16T03:14:40;15.30;99.90
21338;DHT22;10827;50.878;4.382;2022-10-16T03:17:06;15.40;99.90
21338;DHT22;10827;50.878;4.382;2022-10-16T03:24:24;15.50;99.90
21338;DHT22;10827;50.878;4.382;2022-10-16T03:26:50;15.00;99.90
21338;DHT22;10827;50.878;4.382;2022-10-16T03:29:15;14.90;99.90
21338;DHT22;10827;50.878;4.382;2022-10-16T03:31:41;15.10;99.90
21338;DHT22;10827;50.878;4.382;2022-10-16T03:36:33;15.00;99.90
21338;DHT22;10827;50.878;4.382;2022-10-16T03:39:00;15.20;99.90
21338;DHT22;10827;50.878;4.382;2022-10-16T03:41:26;15.40;99.90
21338;DHT22;10827;50.878;4.382;2022-10-16T03:48:44;15.00;99.90
21338;DHT22;10827;50.878;4.382;2022-10-16T03:51:09;15.00;99.90
21338;DHT22;10827;50.878;4.382;2022-10-16T03:53:35;15.10;99.90
21338;DHT22;10827;50.878;4.382;2022-10-16T04:03:20;14.80;99.90
21338;DHT22;10827;50.878;4.382;2022-10-16T04:05:47;14.70;99.90
21338;DHT22;10827;50.878;4.382;2022-10-16T04:10:42;14.80;99.90
21338;DHT22;10827;50.878;4.382;2022-10-16T04:13:08;14.70;99.90
21338;DHT22;10827;50.878;4.382;2022-10-16T04:15:35;14.60;99.90
21338;DHT22;10827;50.878;4.382;2022-10-16T04:22:53;14.80;99.90
21338;DHT22;10827;50.878;4.382;2022-10-16T04:27:45;14.80;99.90
21338;DHT22;10827;50.878;4.382;2022-10-16T04:30:11;14.80;99.90
21338;DHT22;10827;50.878;4.382;2022-10-16T04:35:02;14.70;99.90
21338;DHT22;10827;50.878;4.382;2022-10-16T04:39:54;15.00;99.90
21338;DHT22;10827;50.878;4.382;2022-10-16T04:42:20;14.80;99.90
21338;DHT22;10827;50.878;4.382;2022-10-16T04:47:13;14.80;99.90
21338;DHT22;10827;50.878;4.382;2022-10-16T04:49:39;14.40;99.90
21338;DHT22;10827;50.878;4.382;2022-10-16T04:54:31;14.60;99.90
21338;DHT22;10827;50.878;4.382;2022-10-16T04:56:58;14.50;99.90
21338;DHT22;10827;50.878;4.382;2022-10-16T04:59:24;14.90;99.90
21338;DHT22;10827;50.878;4.382;2022-10-16T05:01:49;14.70;99.90
21338;DHT22;10827;50.878;4.382;2022-10-16T05:04:15;14.50;99.90
21338;DHT22;10827;50.878;4.382;2022-10-16T05:06:42;14.40;99.90
21338;DHT22;10827;50.878;4.382;2022-10-16T05:09:08;14.40;99.90
21338;DHT22;10827;50.878;4.382;2022-10-16T05:11:35;14.60;99.90
21338;DHT22;10827;50.878;4.382;2022-10-16T05:16:29;14.30;99.90
21338;DHT22;10827;50.878;4.382;2022-10-16T05:21:21;14.50;99.90
21338;DHT22;10827;50.878;4.382;2022-10-16T05:23:47;14.60;99.90
21338;DHT22;10827;50.878;4.382;2022-10-16T05:28:40;14.50;99.90
21338;DHT22;10827;50.878;4.382;2022-10-16T05:33:32;14.80;99.90
21338;DHT22;10827;50.878;4.382;2022-10-16T05:36:09;14.80;99.90
21338;DHT22;10827;50.878;4.382;2022-10-16T05:38:36;14.90;99.90
21338;DHT22;10827;50.878;4.382;2022-10-16T05:41:03;14.90;99.90
21338;DHT22;10827;50.878;4.382;2022-10-16T05:43:30;14.60;99.90
21338;DHT22;10827;50.878;4.382;2022-10-16T05:45:59;14.60;99.90
21338;DHT22;10827;50.878;4.382;2022-10-16T05:48:25;14.90;99.90
21338;DHT22;10827;50.878;4.382;2022-10-16T05:50:59;14.60;99.90
21338;DHT22;10827;50.878;4.382;2022-10-16T05:53:27;14.50;99.90
21338;DHT22;10827;50.878;4.382;2022-10-16T06:00:56;14.50;99.90
21338;DHT22;10827;50.878;4.382;2022-10-16T06:13:07;14.40;99.90
21338;DHT22;10827;50.878;4.382;2022-10-16T06:17:59;14.40;99.90
21338;DHT22;10827;50.878;4.382;2022-10-16T06:20:26;14.40;99.90
21338;DHT22;10827;50.878;4.382;2022-10-16T06:22:52;14.50;99.90
21338;DHT22;10827;50.878;4.382;2022-10-16T06:25:17;14.70;99.90
21338;DHT22;10827;50.878;4.382;2022-10-16T06:30:09;14.60;99.90
21338;DHT22;10827;50.878;4.382;2022-10-16T06:32:35;14.70;99.90
21338;DHT22;10827;50.878;4.382;2022-10-16T06:35:01;14.90;99.90
21338;DHT22;10827;50.878;4.382;2022-10-16T06:37:27;14.80;99.90
21338;DHT22;10827;50.878;4.382;2022-10-16T06:39:52;13.70;99.90
21338;DHT22;10827;50.878;4.382;2022-10-16T06:42:19;14.50;99.90
21338;DHT22;10827;50.878;4.382;2022-10-16T06:54:29;14.60;99.90
21338;DHT22;10827;50.878;4.382;2022-10-16T06:59:21;14.50;99.90
21338;DHT22;10827;50.878;4.382;2022-10-16T07:01:47;14.50;99.90
21338;DHT22;10827;50.878;4.382;2022-10-16T07:06:39;14.60;99.90
21338;DHT22;10827;50.878;4.382;2022-10-16T07:09:08;14.60;99.90
21338;DHT22;10827;50.878;4.382;2022-10-16T07:11:39;14.50;99.90
21338;DHT22;10827;50.878;4.382;2022-10-16T07:14:14;14.40;99.90
21338;DHT22;10827;50.878;4.382;2022-10-16T07:21:34;14.30;99.90
21338;DHT22;10827;50.878;4.382;2022-10-16T07:24:04;14.30;99.90
21338;DHT22;10827;50.878;4.382;2022-10-16T07:26:33;14.40;99.90
21338;DHT22;10827;50.878;4.382;2022-10-16T07:28:59;14.40;99.90
21338;DHT22;10827;50.878;4.382;2022-10-16T07:31:26;14.40;99.90
21338;DHT22;10827;50.878;4.382;2022-10-16T07:36:20;14.60;99.90
21338;DHT22;10827;50.878;4.382;2022-10-16T07:38:46;14.30;99.90
21338;DHT22;10827;50.878;4.382;2022-10-16T07:41:16;14.50;99.90
21338;DHT22;10827;50.878;4.382;2022-10-16T07:43:47;14.60;99.90
21338;DHT22;10827;50.878;4.382;2022-10-16T07:48:40;14.80;99.90
21338;DHT22;10827;50.878;4.382;2022-10-16T07:51:07;14.90;99.90
21338;DHT22;10827;50.878;4.382;2022-10-16T07:53:33;14.80;99.90
21338;DHT22;10827;50.878;4.382;2022-10-16T07:56:00;15.00;99.90
21338;DHT22;10827;50.878;4.382;2022-10-16T07:58:27;14.90;99.90
21338;DHT22;10827;50.878;4.382;2022-10-16T08:05:45;14.80;99.90
21338;DHT22;10827;50.878;4.382;2022-10-16T08:08:15;14.80;99.90
21338;DHT22;10827;50.878;4.382;2022-10-16T08:10:42;14.80;99.90
21338;DHT22;10827;50.878;4.382;2022-10-16T08:18:02;15.00;99.90
21338;DHT22;10827;50.878;4.382;2022-10-16T08:20:28;15.00;99.90
21338;DHT22;10827;50.878;4.382;2022-10-16T08:25:22;15.10;99.90
21338;DHT22;10827;50.878;4.382;2022-10-16T08:30:17;15.20;99.90
21338;DHT22;10827;50.878;4.382;2022-10-16T08:32:42;15.30;99.90
21338;DHT22;10827;50.878;4.382;2022-10-16T08:35:09;15.30;99.90
21338;DHT22;10827;50.878;4.382;2022-10-16T08:40:02;15.30;99.90
21338;DHT22;10827;50.878;4.382;2022-10-16T08:45:30;15.60;99.90
21338;DHT22;10827;50.878;4.382;2022-10-16T08:48:20;15.90;99.50
21338;DHT22;10827;50.878;4.382;2022-10-16T08:50:49;16.40;98.20
21338;DHT22;10827;50.878;4.382;2022-10-16T08:53:25;16.40;99.30
21338;DHT22;10827;50.878;4.382;2022-10-16T08:55:53;16.60;83.50
21338;DHT22;10827;50.878;4.382;2022-10-16T08:58:29;16.30;97.40
21338;DHT22;10827;50.878;4.382;2022-10-16T09:01:01;15.90;94.80
21338;DHT22;10827;50.878;4.382;2022-10-16T09:08:46;15.90;94.80
21338;DHT22;10827;50.878;4.382;2022-10-16T09:23:13;16.20;92.10
21338;DHT22;10827;50.878;4.382;2022-10-16T09:25:43;16.00;98.10
21338;DHT22;10827;50.878;4.382;2022-10-16T09:30:36;16.20;86.40
21338;DHT22;10827;50.878;4.382;2022-10-16T09:33:03;16.20;95.70
21338;DHT22;10827;50.878;4.382;2022-10-16T09:35:46;16.30;95.30
21338;DHT22;10827;50.878;4.382;2022-10-16T09:38:42;16.20;88.60
21338;DHT22;10827;50.878;4.382;2022-10-16T09:43:54;16.40;94.00
21338;DHT22;10827;50.878;4.382;2022-10-16T09:48:56;16.60;75.80
21338;DHT22;10827;50.878;4.382;2022-10-16T09:51:25;16.70;85.10
21338;DHT22;10827;50.878;4.382;2022-10-16T09:53:59;16.80;85.40
21338;DHT22;10827;50.878;4.382;2022-10-16T09:56:34;16.90;72.90
21338;DHT22;10827;50.878;4.382;2022-10-16T09:59:19;17.00;57.20
21338;DHT22;10827;50.878;4.382;2022-10-16T10:01:48;17.10;59.00
21338;DHT22;10827;50.878;4.382;2022-10-16T10:04:15;17.10;67.90
21338;DHT22;10827;50.878;4.382;2022-10-16T10:09:22;17.10;37.30
21338;DHT22;10827;50.878;4.382;2022-10-16T10:16:50;17.00;39.70
21338;DHT22;10827;50.878;4.382;2022-10-16T10:19:23;17.10;36.00
21338;DHT22;10827;50.878;4.382;2022-10-16T10:21:52;17.20;30.00
21338;DHT22;10827;50.878;4.382;2022-10-16T10:24:19;17.10;48.50
21338;DHT22;10827;50.878;4.382;2022-10-16T10:26:58;17.30;36.90
21338;DHT22;10827;50.878;4.382;2022-10-16T10:38:05;17.70;4.20
21338;DHT22;10827;50.878;4.382;2022-10-16T10:45:43;17.60;1.00
21338;DHT22;10827;50.878;4.382;2022-10-16T10:56:41;17.90;12.70
21338;DHT22;10827;50.878;4.382;2022-10-16T11:02:13;18.40;1.00
21338;DHT22;10827;50.878;4.382;2022-10-16T11:07:34;18.90;1.00
21338;DHT22;10827;50.878;4.382;2022-10-16T11:10:09;18.20;1.00
21338;DHT22;10827;50.878;4.382;2022-10-16T11:12:44;18.20;1.00
21338;DHT22;10827;50.878;4.382;2022-10-16T11:15:18;18.00;1.00
21338;DHT22;10827;50.878;4.382;2022-10-16T11:18:16;17.90;1.00
21338;DHT22;10827;50.878;4.382;2022-10-16T11:20:45;17.90;1.00
21338;DHT22;10827;50.878;4.382;2022-10-16T11:23:25;18.00;1.00
21338;DHT22;10827;50.878;4.382;2022-10-16T11:25:53;18.20;1.00
21338;DHT22;10827;50.878;4.382;2022-10-16T11:31:29;18.60;1.00
21338;DHT22;10827;50.878;4.382;2022-10-16T11:34:17;18.80;1.00
21338;DHT22;10827;50.878;4.382;2022-10-16T11:36:46;19.00;1.00
21338;DHT22;10827;50.878;4.382;2022-10-16T11:39:29;19.00;1.00
21338;DHT22;10827;50.878;4.382;2022-10-16T11:44:57;19.00;1.00
21338;DHT22;10827;50.878;4.382;2022-10-16T11:47:39;19.00;1.00
21338;DHT22;10827;50.878;4.382;2022-10-16T11:55:41;19.10;1.00
21338;DHT22;10827;50.878;4.382;2022-10-16T12:01:07;19.20;1.00
21338;DHT22;10827;50.878;4.382;2022-10-16T12:06:40;19.40;1.00
21338;DHT22;10827;50.878;4.382;2022-10-16T12:09:30;19.40;1.00
21338;DHT22;10827;50.878;4.382;2022-10-16T12:11:56;19.10;1.00
21338;DHT22;10827;50.878;4.382;2022-10-16T12:14:36;19.30;1.00
21338;DHT22;10827;50.878;4.382;2022-10-16T12:17:24;19.50;1.00
21338;DHT22;10827;50.878;4.382;2022-10-16T12:19:59;19.70;1.00
21338;DHT22;10827;50.878;4.382;2022-10-16T12:22:28;19.90;1.00
21338;DHT22;10827;50.878;4.382;2022-10-16T12:24:54;19.90;1.00
21338;DHT22;10827;50.878;4.382;2022-10-16T12:29:59;19.10;1.00
21338;DHT22;10827;50.878;4.382;2022-10-16T12:32:31;19.20;1.00
21338;DHT22;10827;50.878;4.382;2022-10-16T12:34:58;19.10;1.00
21338;DHT22;10827;50.878;4.382;2022-10-16T12:37:32;19.10;1.00
21338;DHT22;10827;50.878;4.382;2022-10-16T12:39:59;19.10;1.00
21338;DHT22;10827;50.878;4.382;2022-10-16T12:42:36;19.70;1.00
21338;DHT22;10827;50.878;4.382;2022-10-16T12:47:55;19.40;1.00
21338;DHT22;10827;50.878;4.382;2022-10-16T12:50:39;19.30;1.00
21338;DHT22;10827;50.878;4.382;2022-10-16T12:53:36;19.50;1.00
21338;DHT22;10827;50.878;4.382;2022-10-16T12:56:17;19.70;1.00
21338;DHT22;10827;50.878;4.382;2022-10-16T12:58:53;21.60;1.00
21338;DHT22;10827;50.878;4.382;2022-10-16T13:01:47;19.80;1.00
21338;DHT22;10827;50.878;4.382;2022-10-16T13:07:38;19.80;1.00
21338;DHT22;10827;50.878;4.382;2022-10-16T13:10:32;20.20;1.00
21338;DHT22;10827;50.878;4.382;2022-10-16T13:28:31;20.40;1.00
21338;DHT22;10827;50.878;4.382;2022-10-16T13:30:58;20.50;1.00
21338;DHT22;10827;50.878;4.382;2022-10-16T13:33:37;20.40;1.00
21338;DHT22;10827;50.878;4.382;2022-10-16T13:36:05;20.50;1.00
21338;DHT22;10827;50.878;4.382;2022-10-16T13:38:33;20.70;1.00
21338;DHT22;10827;50.878;4.382;2022-10-16T13:41:14;20.70;1.00
21338;DHT22;10827;50.878;4.382;2022-10-16T13:48:39;20.90;1.00
21338;DHT22;10827;50.878;4.382;2022-10-16T13:53:33;20.30;1.00
21338;DHT22;10827;50.878;4.382;2022-10-16T13:55:59;20.40;1.00
21338;DHT22;10827;50.878;4.382;2022-10-16T13:58:28;20.50;1.00
21338;DHT22;10827;50.878;4.382;2022-10-16T14:01:00;20.30;1.00
21338;DHT22;10827;50.878;4.382;2022-10-16T14:03:27;20.40;1.00
21338;DHT22;10827;50.878;4.382;2022-10-16T14:05:56;20.10;1.00
21338;DHT22;10827;50.878;4.382;2022-10-16T14:08:25;20.30;1.00
21338;DHT22;10827;50.878;4.382;2022-10-16T14:10:57;20.10;1.00
21338;DHT22;10827;50.878;4.382;2022-10-16T14:13:37;20.20;1.00
21338;DHT22;10827;50.878;4.382;2022-10-16T14:16:27;19.90;1.00
21338;DHT22;10827;50.878;4.382;2022-10-16T14:19:00;20.00;1.00
21338;DHT22;10827;50.878;4.382;2022-10-16T14:21:26;20.10;1.00
21338;DHT22;10827;50.878;4.382;2022-10-16T14:23:52;20.10;1.00
21338;DHT22;10827;50.878;4.382;2022-10-16T14:26:20;20.30;1.00
21338;DHT22;10827;50.878;4.382;2022-10-16T14:28:49;20.40;1.00
21338;DHT22;10827;50.878;4.382;2022-10-16T14:31:33;20.20;1.00
21338;DHT22;10827;50.878;4.382;2022-10-16T14:34:00;20.20;1.00
21338;DHT22;10827;50.878;4.382;2022-10-16T14:36:27;20.20;1.00
21338;DHT22;10827;50.878;4.382;2022-10-16T14:41:22;20.40;1.00
21338;DHT22;10827;50.878;4.382;2022-10-16T14:43:52;20.40;1.00
21338;DHT22;10827;50.878;4.382;2022-10-16T14:46:21;20.70;1.00
21338;DHT22;10827;50.878;4.382;2022-10-16T14:48:57;20.40;1.00
21338;DHT22;10827;50.878;4.382;2022-10-16T14:51:23;20.50;1.00
21338;DHT22;10827;50.878;4.382;2022-10-16T14:53:49;20.50;1.00
21338;DHT22;10827;50.878;4.382;2022-10-16T14:56:23;20.60;1.00
21338;DHT22;10827;50.878;4.382;2022-10-16T14:58:53;20.70;1.00
21338;DHT22;10827;50.878;4.382;2022-10-16T15:01:19;20.90;1.00
21338;DHT22;10827;50.878;4.382;2022-10-16T15:03:45;20.60;1.00
21338;DHT22;10827;50.878;4.382;2022-10-16T15:06:12;20.40;1.00
21338;DHT22;10827;50.878;4.382;2022-10-16T15:08:40;20.50;1.00
21338;DHT22;10827;50.878;4.382;2022-10-16T15:11:17;20.60;1.00
21338;DHT22;10827;50.878;4.382;2022-10-16T15:13:43;20.60;1.00
21338;DHT22;10827;50.878;4.382;2022-10-16T15:16:14;20.70;1.00
21338;DHT22;10827;50.878;4.382;2022-10-16T15:18:41;20.70;1.00
21338;DHT22;10827;50.878;4.382;2022-10-16T15:21:07;21.10;1.00
21338;DHT22;10827;50.878;4.382;2022-10-16T15:23:33;20.50;1.00
21338;DHT22;10827;50.878;4.382;2022-10-16T15:25:58;20.60;1.00
21338;DHT22;10827;50.878;4.382;2022-10-16T15:28:25;20.60;1.00
21338;DHT22;10827;50.878;4.382;2022-10-16T15:30:54;20.60;1.00
21338;DHT22;10827;50.878;4.382;2022-10-16T15:33:22;20.50;1.00
21338;DHT22;10827;50.878;4.382;2022-10-16T15:35:49;20.50;1.00
21338;DHT22;10827;50.878;4.382;2022-10-16T15:38:17;20.50;1.00
21338;DHT22;10827;50.878;4.382;2022-10-16T15:40:43;20.30;1.00
21338;DHT22;10827;50.878;4.382;2022-10-16T15:43:08;20.10;1.00
21338;DHT22;10827;50.878;4.382;2022-10-16T15:45:34;20.00;1.00
21338;DHT22;10827;50.878;4.382;2022-10-16T15:48:01;20.10;1.00
21338;DHT22;10827;50.878;4.382;2022-10-16T15:50:27;20.00;1.00
21338;DHT22;10827;50.878;4.382;2022-10-16T15:52:53;19.80;1.00
21338;DHT22;10827;50.878;4.382;2022-10-16T15:55:19;19.80;1.00
21338;DHT22;10827;50.878;4.382;2022-10-16T15:57:45;19.80;1.00
21338;DHT22;10827;50.878;4.382;2022-10-16T16:00:14;19.70;1.00
21338;DHT22;10827;50.878;4.382;2022-10-16T16:02:41;19.90;1.00
21338;DHT22;10827;50.878;4.382;2022-10-16T16:05:08;19.70;1.00
21338;DHT22;10827;50.878;4.382;2022-10-16T16:07:36;19.70;1.00
21338;DHT22;10827;50.878;4.382;2022-10-16T16:10:03;19.70;1.00
21338;DHT22;10827;50.878;4.382;2022-10-16T16:12:29;19.50;1.00
21338;DHT22;10827;50.878;4.382;2022-10-16T16:14:55;19.60;1.00
21338;DHT22;10827;50.878;4.382;2022-10-16T16:17:21;19.50;1.00
21338;DHT22;10827;50.878;4.382;2022-10-16T16:22:13;19.10;1.00
21338;DHT22;10827;50.878;4.382;2022-10-16T16:24:39;19.60;1.00
21338;DHT22;10827;50.878;4.382;2022-10-16T16:27:04;19.40;1.00
21338;DHT22;10827;50.878;4.382;2022-10-16T16:29:32;19.50;1.00
21338;DHT22;10827;50.878;4.382;2022-10-16T16:31:59;19.30;1.00
21338;DHT22;10827;50.878;4.382;2022-10-16T16:34:26;19.30;1.00
21338;DHT22;10827;50.878;4.382;2022-10-16T16:36:53;19.30;1.00
21338;DHT22;10827;50.878;4.382;2022-10-16T16:39:19;19.10;1.00
21338;DHT22;10827;50.878;4.382;2022-10-16T16:41:45;19.20;1.00
21338;DHT22;10827;50.878;4.382;2022-10-16T16:44:11;19.20;1.00
21338;DHT22;10827;50.878;4.382;2022-10-16T16:46:38;19.20;1.00
21338;DHT22;10827;50.878;4.382;2022-10-16T16:49:05;19.10;1.00
21338;DHT22;10827;50.878;4.382;2022-10-16T16:51:32;19.60;1.00
21338;DHT22;10827;50.878;4.382;2022-10-16T16:53:58;19.10;1.00
21338;DHT22;10827;50.878;4.382;2022-10-16T16:56:24;19.50;1.00
21338;DHT22;10827;50.878;4.382;2022-10-16T16:58:53;19.40;1.00
21338;DHT22;10827;50.878;4.382;2022-10-16T17:01:20;19.10;1.00
21338;DHT22;10827;50.878;4.382;2022-10-16T17:03:46;19.00;1.00
21338;DHT22;10827;50.878;4.382;2022-10-16T17:06:13;19.20;1.00
21338;DHT22;10827;50.878;4.382;2022-10-16T17:08:39;19.20;1.00
21338;DHT22;10827;50.878;4.382;2022-10-16T17:11:10;19.10;13.00
21338;DHT22;10827;50.878;4.382;2022-10-16T17:13:36;19.00;52.80
21338;DHT22;10827;50.878;4.382;2022-10-16T17:16:04;19.60;66.30
21338;DHT22;10827;50.878;4.382;2022-10-16T17:18:31;18.90;64.80
21338;DHT22;10827;50.878;4.382;2022-10-16T17:21:02;18.80;64.40
21338;DHT22;10827;50.878;4.382;2022-10-16T17:23:28;18.80;69.20
21338;DHT22;10827;50.878;4.382;2022-10-16T17:25:54;18.70;95.10
21338;DHT22;10827;50.878;4.382;2022-10-16T17:28:20;18.40;99.90
21338;DHT22;10827;50.878;4.382;2022-10-16T17:30:46;18.40;99.90
21338;DHT22;10827;50.878;4.382;2022-10-16T17:33:12;18.20;99.90
21338;DHT22;10827;50.878;4.382;2022-10-16T17:35:40;18.20;99.90
21338;DHT22;10827;50.878;4.382;2022-10-16T17:38:06;18.00;99.90
21338;DHT22;10827;50.878;4.382;2022-10-16T17:40:33;17.80;99.90
21338;DHT22;10827;50.878;4.382;2022-10-16T17:42:59;17.80;99.90
21338;DHT22;10827;50.878;4.382;2022-10-16T17:45:25;18.10;99.90
21338;DHT22;10827;50.878;4.382;2022-10-16T17:47:51;18.20;99.90
21338;DHT22;10827;50.878;4.382;2022-10-16T17:50:17;18.10;99.90
21338;DHT22;10827;50.878;4.382;2022-10-16T17:52:43;17.90;99.90
21338;DHT22;10827;50.878;4.382;2022-10-16T17:55:10;18.50;99.90
21338;DHT22;10827;50.878;4.382;2022-10-16T17:57:37;18.00;99.90
21338;DHT22;10827;50.878;4.382;2022-10-16T18:00:04;18.10;99.90
21338;DHT22;10827;50.878;4.382;2022-10-16T18:02:31;18.20;99.90
21338;DHT22;10827;50.878;4.382;2022-10-16T18:07:28;18.00;99.90
21338;DHT22;10827;50.878;4.382;2022-10-16T18:09:55;17.80;99.90
21338;DHT22;10827;50.878;4.382;2022-10-16T18:19:40;18.10;99.90
21338;DHT22;10827;50.878;4.382;2022-10-16T18:24:32;17.80;99.90
21338;DHT22;10827;50.878;4.382;2022-10-16T18:29:26;17.40;99.90
21338;DHT22;10827;50.878;4.382;2022-10-16T18:31:53;17.50;99.90
21338;DHT22;10827;50.878;4.382;2022-10-16T18:34:19;17.50;99.90
21338;DHT22;10827;50.878;4.382;2022-10-16T18:36:45;17.50;99.90
21338;DHT22;10827;50.878;4.382;2022-10-16T18:39:12;17.50;99.90
21338;DHT22;10827;50.878;4.382;2022-10-16T18:41:40;17.80;99.90
21338;DHT22;10827;50.878;4.382;2022-10-16T18:44:07;18.10;99.90
21338;DHT22;10827;50.878;4.382;2022-10-16T18:46:34;18.30;99.90
21338;DHT22;10827;50.878;4.382;2022-10-16T18:49:00;18.00;99.90
21338;DHT22;10827;50.878;4.382;2022-10-16T18:51:37;17.90;99.90
21338;DHT22;10827;50.878;4.382;2022-10-16T18:54:10;16.90;99.90
21338;DHT22;10827;50.878;4.382;2022-10-16T18:56:37;18.40;99.90
21338;DHT22;10827;50.878;4.382;2022-10-16T18:59:06;17.90;99.90
21338;DHT22;10827;50.878;4.382;2022-10-16T19:01:34;17.60;99.90
21338;DHT22;10827;50.878;4.382;2022-10-16T19:04:08;17.80;99.90
21338;DHT22;10827;50.878;4.382;2022-10-16T19:06:42;17.80;99.90
21338;DHT22;10827;50.878;4.382;2022-10-16T19:09:10;17.50;99.90
21338;DHT22;10827;50.878;4.382;2022-10-16T19:16:31;17.70;99.90
21338;DHT22;10827;50.878;4.382;2022-10-16T19:19:00;17.50;99.90
21338;DHT22;10827;50.878;4.382;2022-10-16T19:21:27;17.50;99.90
21338;DHT22;10827;50.878;4.382;2022-10-16T19:23:56;17.30;99.90
21338;DHT22;10827;50.878;4.382;2022-10-16T19:28:49;17.60;99.90
21338;DHT22;10827;50.878;4.382;2022-10-16T19:31:18;17.40;99.90
21338;DHT22;10827;50.878;4.382;2022-10-16T19:33:45;17.80;99.90
21338;DHT22;10827;50.878;4.382;2022-10-16T19:36:23;17.60;99.90
21338;DHT22;10827;50.878;4.382;2022-10-16T19:38:58;17.70;99.90
21338;DHT22;10827;50.878;4.382;2022-10-16T19:41:24;17.60;99.90
21338;DHT22;10827;50.878;4.382;2022-10-16T19:43:51;17.30;99.90
21338;DHT22;10827;50.878;4.382;2022-10-16T19:46:22;17.50;99.90
21338;DHT22;10827;50.878;4.382;2022-10-16T19:48:55;17.50;99.90
21338;DHT22;10827;50.878;4.382;2022-10-16T19:51:22;17.60;99.90
21338;DHT22;10827;50.878;4.382;2022-10-16T19:53:53;18.90;99.90
21338;DHT22;10827;50.878;4.382;2022-10-16T19:56:21;18.10;99.90
21338;DHT22;10827;50.878;4.382;2022-10-16T19:58:48;17.70;99.90
21338;DHT22;10827;50.878;4.382;2022-10-16T20:01:15;17.70;99.90
21338;DHT22;10827;50.878;4.382;2022-10-16T20:03:46;17.40;99.90
21338;DHT22;10827;50.878;4.382;2022-10-16T20:06:14;17.60;99.90
21338;DHT22;10827;50.878;4.382;2022-10-16T20:08:41;17.30;99.90
21338;DHT22;10827;50.878;4.382;2022-10-16T20:11:16;16.90;99.90
21338;DHT22;10827;50.878;4.382;2022-10-16T20:13:42;17.20;99.90
21338;DHT22;10827;50.878;4.382;2022-10-16T20:16:10;17.20;99.90
21338;DHT22;10827;50.878;4.382;2022-10-16T20:21:11;17.10;99.90
21338;DHT22;10827;50.878;4.382;2022-10-16T20:23:37;17.00;99.90
21338;DHT22;10827;50.878;4.382;2022-10-16T20:26:03;17.00;99.90
21338;DHT22;10827;50.878;4.382;2022-10-16T20:28:29;17.30;99.90
21338;DHT22;10827;50.878;4.382;2022-10-16T20:30:55;17.10;99.90
21338;DHT22;10827;50.878;4.382;2022-10-16T20:33:20;17.40;99.90
21338;DHT22;10827;50.878;4.382;2022-10-16T20:35:48;17.30;99.90
21338;DHT22;10827;50.878;4.382;2022-10-16T20:38:16;17.20;99.90
21338;DHT22;10827;50.878;4.382;2022-10-16T20:40:44;17.20;99.90
21338;DHT22;10827;50.878;4.382;2022-10-16T20:43:12;17.40;99.90
21338;DHT22;10827;50.878;4.382;2022-10-16T20:45:38;17.50;99.90
21338;DHT22;10827;50.878;4.382;2022-10-16T20:48:04;17.40;99.90
21338;DHT22;10827;50.878;4.382;2022-10-16T20:50:30;17.00;99.90
21338;DHT22;10827;50.878;4.382;2022-10-16T20:52:57;17.50;99.90
21338;DHT22;10827;50.878;4.382;2022-10-16T20:55:24;18.00;99.90
21338;DHT22;10827;50.878;4.382;2022-10-16T20:57:50;17.60;99.90